sensor_id;sensor_type;location;lat;lon;timestamp;temperature;humidity
20648;DHT22;10483;44.646;10.924;2022-07-25T00:01:36;30.70;95.00
20648;DHT22;10483;44.646;10.924;2022-07-25T00:04:03;30.80;95.00
20648;DHT22;10483;44.646;10.924;2022-07-25T00:06:30;30.80;94.90
20648;DHT22;10483;44.646;10.924;2022-07-25T00:08:57;30.80;94.80
20648;DHT22;10483;44.646;10.924;2022-07-25T00:11:23;30.80;95.00
20648;DHT22;10483;44.646;10.924;2022-07-25T00:13:50;30.80;94.80
20648;DHT22;10483;44.646;10.924;2022-07-25T00:16:17;30.90;94.90
20648;DHT22;10483;44.646;10.924;2022-07-25T00:18:43;30.90;94.80
20648;DHT22;10483;44.646;10.924;2022-07-25T00:21:10;30.90;94.90
20648;DHT22;10483;44.646;10.924;2022-07-25T00:23:37;30.90;94.90
20648;DHT22;10483;44.646;10.924;2022-07-25T00:26:05;30.80;94.70
20648;DHT22;10483;44.646;10.924;2022-07-25T00:28:32;30.80;94.70
20648;DHT22;10483;44.646;10.924;2022-07-25T00:30:59;30.80;95.10
20648;DHT22;10483;44.646;10.924;2022-07-25T00:33:25;30.80;94.80
20648;DHT22;10483;44.646;10.924;2022-07-25T00:35:52;30.80;94.80
20648;DHT22;10483;44.646;10.924;2022-07-25T00:38:19;30.80;94.80
20648;DHT22;10483;44.646;10.924;2022-07-25T00:40:45;30.80;94.90
20648;DHT22;10483;44.646;10.924;2022-07-25T00:43:12;30.80;95.00
20648;DHT22;10483;44.646;10.924;2022-07-25T00:45:39;30.70;95.20
20648;DHT22;10483;44.646;10.924;2022-07-25T00:48:05;30.70;95.50
20648;DHT22;10483;44.646;10.924;2022-07-25T00:50:34;30.70;95.90
20648;DHT22;10483;44.646;10.924;2022-07-25T00:53:01;30.80;95.80
20648;DHT22;10483;44.646;10.924;2022-07-25T00:55:28;30.90;95.60
20648;DHT22;10483;44.646;10.924;2022-07-25T00:57:55;30.80;95.40
20648;DHT22;10483;44.646;10.924;2022-07-25T01:00:22;30.80;95.60
20648;DHT22;10483;44.646;10.924;2022-07-25T01:02:48;30.70;95.60
20648;DHT22;10483;44.646;10.924;2022-07-25T01:05:15;30.70;96.20
20648;DHT22;10483;44.646;10.924;2022-07-25T01:07:42;30.80;95.60
20648;DHT22;10483;44.646;10.924;2022-07-25T01:10:10;30.70;95.60
20648;DHT22;10483;44.646;10.924;2022-07-25T01:12:47;30.60;95.80
20648;DHT22;10483;44.646;10.924;2022-07-25T01:15:16;30.50;95.80
20648;DHT22;10483;44.646;10.924;2022-07-25T01:17:43;30.50;96.10
20648;DHT22;10483;44.646;10.924;2022-07-25T01:20:14;30.40;96.20
20648;DHT22;10483;44.646;10.924;2022-07-25T01:22:41;30.40;96.40
20648;DHT22;10483;44.646;10.924;2022-07-25T01:25:08;30.30;96.50
20648;DHT22;10483;44.646;10.924;2022-07-25T01:27:35;30.20;96.90
20648;DHT22;10483;44.646;10.924;2022-07-25T01:30:01;30.10;97.10
20648;DHT22;10483;44.646;10.924;2022-07-25T01:32:29;30.10;97.20
20648;DHT22;10483;44.646;10.924;2022-07-25T01:34:56;30.10;97.40
20648;DHT22;10483;44.646;10.924;2022-07-25T01:37:22;30.10;97.40
20648;DHT22;10483;44.646;10.924;2022-07-25T01:39:49;30.00;97.60
20648;DHT22;10483;44.646;10.924;2022-07-25T01:42:16;30.00;97.70
20648;DHT22;10483;44.646;10.924;2022-07-25T01:44:43;30.00;97.80
20648;DHT22;10483;44.646;10.924;2022-07-25T01:47:09;30.00;97.80
20648;DHT22;10483;44.646;10.924;2022-07-25T01:49:36;29.90;98.00
20648;DHT22;10483;44.646;10.924;2022-07-25T01:52:03;30.00;98.60
20648;DHT22;10483;44.646;10.924;2022-07-25T01:54:29;30.10;98.50
20648;DHT22;10483;44.646;10.924;2022-07-25T01:56:57;30.20;98.20
20648;DHT22;10483;44.646;10.924;2022-07-25T01:59:23;30.20;98.20
20648;DHT22;10483;44.646;10.924;2022-07-25T02:01:50;30.20;98.20
20648;DHT22;10483;44.646;10.924;2022-07-25T02:04:17;30.20;98.30
20648;DHT22;10483;44.646;10.924;2022-07-25T02:06:43;30.30;98.40
20648;DHT22;10483;44.646;10.924;2022-07-25T02:09:10;30.30;98.30
20648;DHT22;10483;44.646;10.924;2022-07-25T02:11:36;30.30;98.00
20648;DHT22;10483;44.646;10.924;2022-07-25T02:14:03;30.30;98.20
20648;DHT22;10483;44.646;10.924;2022-07-25T02:16:30;30.30;98.30
20648;DHT22;10483;44.646;10.924;2022-07-25T02:18:57;30.30;98.20
20648;DHT22;10483;44.646;10.924;2022-07-25T02:21:24;30.30;98.40
20648;DHT22;10483;44.646;10.924;2022-07-25T02:23:51;30.30;98.30
20648;DHT22;10483;44.646;10.924;2022-07-25T02:26:18;30.40;98.40
20648;DHT22;10483;44.646;10.924;2022-07-25T02:28:44;30.30;98.70
20648;DHT22;10483;44.646;10.924;2022-07-25T02:31:11;30.30;98.80
20648;DHT22;10483;44.646;10.924;2022-07-25T02:33:37;30.30;98.80
20648;DHT22;10483;44.646;10.924;2022-07-25T02:36:04;30.20;99.20
20648;DHT22;10483;44.646;10.924;2022-07-25T02:38:32;30.00;99.50
20648;DHT22;10483;44.646;10.924;2022-07-25T02:40:58;29.90;99.80
20648;DHT22;10483;44.646;10.924;2022-07-25T02:43:25;29.80;99.90
20648;DHT22;10483;44.646;10.924;2022-07-25T02:45:52;29.80;99.90
20648;DHT22;10483;44.646;10.924;2022-07-25T02:48:19;29.80;99.90
20648;DHT22;10483;44.646;10.924;2022-07-25T02:50:45;29.80;99.90
20648;DHT22;10483;44.646;10.924;2022-07-25T02:53:12;29.80;99.90
20648;DHT22;10483;44.646;10.924;2022-07-25T02:55:39;29.80;99.90
20648;DHT22;10483;44.646;10.924;2022-07-25T02:58:05;29.70;99.90
20648;DHT22;10483;44.646;10.924;2022-07-25T03:00:32;29.70;99.90
20648;DHT22;10483;44.646;10.924;2022-07-25T03:02:59;29.70;99.90
20648;DHT22;10483;44.646;10.924;2022-07-25T03:05:26;29.70;99.90
20648;DHT22;10483;44.646;10.924;2022-07-25T03:07:52;29.70;99.90
20648;DHT22;10483;44.646;10.924;2022-07-25T03:10:19;29.70;99.90
20648;DHT22;10483;44.646;10.924;2022-07-25T03:12:45;29.60;99.90
20648;DHT22;10483;44.646;10.924;2022-07-25T03:15:12;29.60;99.90
20648;DHT22;10483;44.646;10.924;2022-07-25T03:17:39;29.60;99.90
20648;DHT22;10483;44.646;10.924;2022-07-25T03:20:08;29.60;99.90
20648;DHT22;10483;44.646;10.924;2022-07-25T03:22:35;29.50;99.90
20648;DHT22;10483;44.646;10.924;2022-07-25T03:25:02;29.50;99.90
20648;DHT22;10483;44.646;10.924;2022-07-25T03:27:29;29.50;99.90
20648;DHT22;10483;44.646;10.924;2022-07-25T03:29:56;29.50;99.90
20648;DHT22;10483;44.646;10.924;2022-07-25T03:32:23;29.50;99.90
20648;DHT22;10483;44.646;10.924;2022-07-25T03:34:49;29.40;99.90
20648;DHT22;10483;44.646;10.924;2022-07-25T03:37:16;29.50;99.90
20648;DHT22;10483;44.646;10.924;2022-07-25T03:39:43;29.50;99.90
20648;DHT22;10483;44.646;10.924;2022-07-25T03:42:10;29.50;99.90
20648;DHT22;10483;44.646;10.924;2022-07-25T03:44:37;29.50;99.90
20648;DHT22;10483;44.646;10.924;2022-07-25T03:47:04;29.50;99.90
20648;DHT22;10483;44.646;10.924;2022-07-25T03:49:31;29.50;99.90
20648;DHT22;10483;44.646;10.924;2022-07-25T03:51:58;29.50;99.90
20648;DHT22;10483;44.646;10.924;2022-07-25T03:54:25;29.40;99.90
20648;DHT22;10483;44.646;10.924;2022-07-25T03:56:52;29.40;99.90
20648;DHT22;10483;44.646;10.924;2022-07-25T03:59:20;29.40;99.90
20648;DHT22;10483;44.646;10.924;2022-07-25T04:01:48;29.40;99.90
20648;DHT22;10483;44.646;10.924;2022-07-25T04:04:16;29.30;99.90
20648;DHT22;10483;44.646;10.924;2022-07-25T04:06:44;29.30;99.90
20648;DHT22;10483;44.646;10.924;2022-07-25T04:09:12;29.20;99.90
20648;DHT22;10483;44.646;10.924;2022-07-25T04:11:40;29.20;99.90
20648;DHT22;10483;44.646;10.924;2022-07-25T04:14:07;29.20;99.90
20648;DHT22;10483;44.646;10.924;2022-07-25T04:16:34;29.10;99.90
20648;DHT22;10483;44.646;10.924;2022-07-25T04:19:01;29.00;99.90
20648;DHT22;10483;44.646;10.924;2022-07-25T04:21:27;29.00;99.90
20648;DHT22;10483;44.646;10.924;2022-07-25T04:23:54;29.00;99.90
20648;DHT22;10483;44.646;10.924;2022-07-25T04:26:21;29.00;99.90
20648;DHT22;10483;44.646;10.924;2022-07-25T04:28:48;29.00;99.90
20648;DHT22;10483;44.646;10.924;2022-07-25T04:31:15;29.00;99.90
20648;DHT22;10483;44.646;10.924;2022-07-25T04:33:42;29.00;99.90
20648;DHT22;10483;44.646;10.924;2022-07-25T04:36:09;29.00;99.90
20648;DHT22;10483;44.646;10.924;2022-07-25T04:38:35;28.90;99.90
20648;DHT22;10483;44.646;10.924;2022-07-25T04:41:03;28.90;99.90
20648;DHT22;10483;44.646;10.924;2022-07-25T04:43:29;28.90;99.90
20648;DHT22;10483;44.646;10.924;2022-07-25T04:45:56;28.90;99.90
20648;DHT22;10483;44.646;10.924;2022-07-25T04:48:23;28.90;99.90
20648;DHT22;10483;44.646;10.924;2022-07-25T04:50:49;28.90;99.90
20648;DHT22;10483;44.646;10.924;2022-07-25T04:53:17;28.90;99.90
20648;DHT22;10483;44.646;10.924;2022-07-25T04:55:44;28.80;99.90
20648;DHT22;10483;44.646;10.924;2022-07-25T04:58:10;28.80;99.90
20648;DHT22;10483;44.646;10.924;2022-07-25T05:00:37;28.90;99.90
20648;DHT22;10483;44.646;10.924;2022-07-25T05:03:04;29.20;99.90
20648;DHT22;10483;44.646;10.924;2022-07-25T05:05:30;29.20;99.90
20648;DHT22;10483;44.646;10.924;2022-07-25T05:07:58;29.20;99.90
20648;DHT22;10483;44.646;10.924;2022-07-25T05:10:27;29.20;99.90
20648;DHT22;10483;44.646;10.924;2022-07-25T05:12:55;29.20;99.90
20648;DHT22;10483;44.646;10.924;2022-07-25T05:15:22;29.20;99.90
20648;DHT22;10483;44.646;10.924;2022-07-25T05:17:48;29.10;99.90
20648;DHT22;10483;44.646;10.924;2022-07-25T05:20:15;29.00;99.90
20648;DHT22;10483;44.646;10.924;2022-07-25T05:22:42;29.00;99.90
20648;DHT22;10483;44.646;10.924;2022-07-25T05:25:10;29.00;99.90
20648;DHT22;10483;44.646;10.924;2022-07-25T05:27:38;28.90;99.90
20648;DHT22;10483;44.646;10.924;2022-07-25T05:30:07;28.90;99.90
20648;DHT22;10483;44.646;10.924;2022-07-25T05:32:34;28.90;99.90
20648;DHT22;10483;44.646;10.924;2022-07-25T05:35:01;28.90;99.90
20648;DHT22;10483;44.646;10.924;2022-07-25T05:37:28;28.80;99.90
20648;DHT22;10483;44.646;10.924;2022-07-25T05:39:55;28.90;99.90
20648;DHT22;10483;44.646;10.924;2022-07-25T05:42:21;28.90;99.90
20648;DHT22;10483;44.646;10.924;2022-07-25T05:44:48;28.90;99.90
20648;DHT22;10483;44.646;10.924;2022-07-25T05:47:15;28.90;99.90
20648;DHT22;10483;44.646;10.924;2022-07-25T05:49:41;28.80;99.90
20648;DHT22;10483;44.646;10.924;2022-07-25T05:52:08;28.80;99.90
20648;DHT22;10483;44.646;10.924;2022-07-25T05:54:35;28.80;99.90
20648;DHT22;10483;44.646;10.924;2022-07-25T05:57:02;28.90;99.90
20648;DHT22;10483;44.646;10.924;2022-07-25T05:59:29;28.90;99.90
20648;DHT22;10483;44.646;10.924;2022-07-25T06:01:56;28.90;99.90
20648;DHT22;10483;44.646;10.924;2022-07-25T06:04:23;28.90;99.90
20648;DHT22;10483;44.646;10.924;2022-07-25T06:06:49;28.90;99.90
20648;DHT22;10483;44.646;10.924;2022-07-25T06:09:19;28.90;99.90
20648;DHT22;10483;44.646;10.924;2022-07-25T06:11:47;29.00;99.90
20648;DHT22;10483;44.646;10.924;2022-07-25T06:14:14;29.00;99.90
20648;DHT22;10483;44.646;10.924;2022-07-25T06:16:41;29.00;99.90
20648;DHT22;10483;44.646;10.924;2022-07-25T06:19:08;29.00;99.90
20648;DHT22;10483;44.646;10.924;2022-07-25T06:21:35;29.10;99.90
20648;DHT22;10483;44.646;10.924;2022-07-25T06:24:03;29.10;99.90
20648;DHT22;10483;44.646;10.924;2022-07-25T06:26:29;29.10;99.90
20648;DHT22;10483;44.646;10.924;2022-07-25T06:28:56;29.20;99.90
20648;DHT22;10483;44.646;10.924;2022-07-25T06:31:23;29.30;99.90
20648;DHT22;10483;44.646;10.924;2022-07-25T06:33:49;29.30;99.90
20648;DHT22;10483;44.646;10.924;2022-07-25T06:36:16;29.40;99.90
20648;DHT22;10483;44.646;10.924;2022-07-25T06:38:43;29.40;99.90
20648;DHT22;10483;44.646;10.924;2022-07-25T06:41:12;29.50;99.90
20648;DHT22;10483;44.646;10.924;2022-07-25T06:43:40;29.50;99.90
20648;DHT22;10483;44.646;10.924;2022-07-25T06:46:06;29.60;99.90
20648;DHT22;10483;44.646;10.924;2022-07-25T06:48:33;29.60;99.90
20648;DHT22;10483;44.646;10.924;2022-07-25T06:51:00;29.60;99.90
20648;DHT22;10483;44.646;10.924;2022-07-25T06:53:26;29.60;99.90
20648;DHT22;10483;44.646;10.924;2022-07-25T06:55:53;29.60;99.90
20648;DHT22;10483;44.646;10.924;2022-07-25T06:58:20;29.60;99.90
20648;DHT22;10483;44.646;10.924;2022-07-25T07:00:46;29.60;99.90
20648;DHT22;10483;44.646;10.924;2022-07-25T07:03:13;29.70;99.90
20648;DHT22;10483;44.646;10.924;2022-07-25T07:05:39;29.70;99.90
20648;DHT22;10483;44.646;10.924;2022-07-25T07:08:06;29.70;99.90
20648;DHT22;10483;44.646;10.924;2022-07-25T07:10:33;29.80;99.90
20648;DHT22;10483;44.646;10.924;2022-07-25T07:13:06;29.80;99.90
20648;DHT22;10483;44.646;10.924;2022-07-25T07:15:33;29.90;99.90
20648;DHT22;10483;44.646;10.924;2022-07-25T07:18:00;29.90;99.90
20648;DHT22;10483;44.646;10.924;2022-07-25T07:20:27;30.00;99.90
20648;DHT22;10483;44.646;10.924;2022-07-25T07:22:54;30.10;99.90
20648;DHT22;10483;44.646;10.924;2022-07-25T07:25:21;30.10;99.90
20648;DHT22;10483;44.646;10.924;2022-07-25T07:27:50;30.10;99.90
20648;DHT22;10483;44.646;10.924;2022-07-25T07:30:17;30.20;99.90
20648;DHT22;10483;44.646;10.924;2022-07-25T07:32:44;30.20;99.90
20648;DHT22;10483;44.646;10.924;2022-07-25T07:35:12;30.20;99.90
20648;DHT22;10483;44.646;10.924;2022-07-25T07:37:41;30.20;99.90
20648;DHT22;10483;44.646;10.924;2022-07-25T07:40:09;30.30;99.90
20648;DHT22;10483;44.646;10.924;2022-07-25T07:42:37;30.30;99.90
20648;DHT22;10483;44.646;10.924;2022-07-25T07:45:10;30.40;99.90
20648;DHT22;10483;44.646;10.924;2022-07-25T07:47:37;30.40;99.90
20648;DHT22;10483;44.646;10.924;2022-07-25T07:50:04;30.40;99.90
20648;DHT22;10483;44.646;10.924;2022-07-25T07:52:30;30.50;99.90
20648;DHT22;10483;44.646;10.924;2022-07-25T07:54:57;30.50;99.90
20648;DHT22;10483;44.646;10.924;2022-07-25T07:57:29;30.60;99.90
20648;DHT22;10483;44.646;10.924;2022-07-25T07:59:56;30.60;99.90
20648;DHT22;10483;44.646;10.924;2022-07-25T08:02:23;30.70;99.90
20648;DHT22;10483;44.646;10.924;2022-07-25T08:04:49;30.80;99.90
20648;DHT22;10483;44.646;10.924;2022-07-25T08:07:16;30.80;99.90
20648;DHT22;10483;44.646;10.924;2022-07-25T08:09:42;30.80;99.90
20648;DHT22;10483;44.646;10.924;2022-07-25T08:12:09;30.90;99.90
20648;DHT22;10483;44.646;10.924;2022-07-25T08:14:36;30.90;99.90
20648;DHT22;10483;44.646;10.924;2022-07-25T08:17:02;31.00;99.90
20648;DHT22;10483;44.646;10.924;2022-07-25T08:19:29;31.10;99.90
20648;DHT22;10483;44.646;10.924;2022-07-25T08:21:55;31.20;99.90
20648;DHT22;10483;44.646;10.924;2022-07-25T08:24:22;31.20;99.90
20648;DHT22;10483;44.646;10.924;2022-07-25T08:26:49;31.30;99.90
20648;DHT22;10483;44.646;10.924;2022-07-25T08:29:15;31.40;99.90
20648;DHT22;10483;44.646;10.924;2022-07-25T08:31:42;31.50;99.90
20648;DHT22;10483;44.646;10.924;2022-07-25T08:34:09;31.50;99.90
20648;DHT22;10483;44.646;10.924;2022-07-25T08:36:35;31.60;99.90
20648;DHT22;10483;44.646;10.924;2022-07-25T08:39:02;31.60;99.90
20648;DHT22;10483;44.646;10.924;2022-07-25T08:41:28;31.70;99.90
20648;DHT22;10483;44.646;10.924;2022-07-25T08:43:55;31.80;99.90
20648;DHT22;10483;44.646;10.924;2022-07-25T08:46:22;31.80;99.90
20648;DHT22;10483;44.646;10.924;2022-07-25T08:48:50;31.80;99.90
20648;DHT22;10483;44.646;10.924;2022-07-25T08:51:17;31.90;99.90
20648;DHT22;10483;44.646;10.924;2022-07-25T08:53:45;31.90;99.90
20648;DHT22;10483;44.646;10.924;2022-07-25T08:56:11;32.00;99.90
20648;DHT22;10483;44.646;10.924;2022-07-25T08:58:38;32.00;99.90
20648;DHT22;10483;44.646;10.924;2022-07-25T09:01:05;32.10;99.90
20648;DHT22;10483;44.646;10.924;2022-07-25T09:03:33;32.10;99.90
20648;DHT22;10483;44.646;10.924;2022-07-25T09:06:01;32.10;99.90
20648;DHT22;10483;44.646;10.924;2022-07-25T09:08:29;32.10;99.90
20648;DHT22;10483;44.646;10.924;2022-07-25T09:10:56;32.20;99.90
20648;DHT22;10483;44.646;10.924;2022-07-25T09:13:23;32.20;99.90
20648;DHT22;10483;44.646;10.924;2022-07-25T09:15:53;32.30;99.40
20648;DHT22;10483;44.646;10.924;2022-07-25T09:18:25;32.30;99.00
20648;DHT22;10483;44.646;10.924;2022-07-25T09:20:55;32.40;98.00
20648;DHT22;10483;44.646;10.924;2022-07-25T09:23:32;32.50;98.00
20648;DHT22;10483;44.646;10.924;2022-07-25T09:26:06;32.50;97.10
20648;DHT22;10483;44.646;10.924;2022-07-25T09:28:42;32.60;96.30
20648;DHT22;10483;44.646;10.924;2022-07-25T09:31:10;32.60;96.00
20648;DHT22;10483;44.646;10.924;2022-07-25T09:33:49;32.80;95.70
20648;DHT22;10483;44.646;10.924;2022-07-25T09:36:17;32.80;95.40
20648;DHT22;10483;44.646;10.924;2022-07-25T09:38:51;32.90;95.80
20648;DHT22;10483;44.646;10.924;2022-07-25T09:41:18;32.90;96.90
20648;DHT22;10483;44.646;10.924;2022-07-25T09:43:45;33.00;96.20
20648;DHT22;10483;44.646;10.924;2022-07-25T09:46:12;33.10;96.90
20648;DHT22;10483;44.646;10.924;2022-07-25T09:48:42;33.10;96.20
20648;DHT22;10483;44.646;10.924;2022-07-25T09:51:08;33.30;95.20
20648;DHT22;10483;44.646;10.924;2022-07-25T09:53:35;33.40;95.20
20648;DHT22;10483;44.646;10.924;2022-07-25T09:56:01;33.60;95.90
20648;DHT22;10483;44.646;10.924;2022-07-25T09:58:28;33.80;92.00
20648;DHT22;10483;44.646;10.924;2022-07-25T10:01:01;34.00;91.10
20648;DHT22;10483;44.646;10.924;2022-07-25T10:03:41;34.20;90.80
20648;DHT22;10483;44.646;10.924;2022-07-25T10:08:53;34.60;91.80
20648;DHT22;10483;44.646;10.924;2022-07-25T10:11:23;34.80;91.30
20648;DHT22;10483;44.646;10.924;2022-07-25T10:13:52;35.10;90.30
20648;DHT22;10483;44.646;10.924;2022-07-25T10:16:23;35.40;90.60
20648;DHT22;10483;44.646;10.924;2022-07-25T10:18:54;35.70;90.10
20648;DHT22;10483;44.646;10.924;2022-07-25T10:21:22;36.10;90.00
20648;DHT22;10483;44.646;10.924;2022-07-25T10:23:56;36.30;89.80
20648;DHT22;10483;44.646;10.924;2022-07-25T10:26:23;36.70;87.20
20648;DHT22;10483;44.646;10.924;2022-07-25T10:28:53;37.20;83.70
20648;DHT22;10483;44.646;10.924;2022-07-25T10:31:24;37.80;81.00
20648;DHT22;10483;44.646;10.924;2022-07-25T10:33:57;38.50;78.70
20648;DHT22;10483;44.646;10.924;2022-07-25T10:36:27;39.10;75.80
20648;DHT22;10483;44.646;10.924;2022-07-25T10:38:59;39.50;77.20
20648;DHT22;10483;44.646;10.924;2022-07-25T10:41:27;39.60;75.20
20648;DHT22;10483;44.646;10.924;2022-07-25T10:43:59;40.00;74.90
20648;DHT22;10483;44.646;10.924;2022-07-25T10:46:27;40.20;73.40
20648;DHT22;10483;44.646;10.924;2022-07-25T10:48:59;40.30;72.80
20648;DHT22;10483;44.646;10.924;2022-07-25T10:51:28;40.70;73.20
20648;DHT22;10483;44.646;10.924;2022-07-25T10:53:55;41.40;70.10
20648;DHT22;10483;44.646;10.924;2022-07-25T10:56:26;42.40;67.50
20648;DHT22;10483;44.646;10.924;2022-07-25T10:58:55;43.10;64.90
20648;DHT22;10483;44.646;10.924;2022-07-25T11:01:27;44.20;65.10
20648;DHT22;10483;44.646;10.924;2022-07-25T11:03:57;44.40;62.10
20648;DHT22;10483;44.646;10.924;2022-07-25T11:06:30;44.60;61.40
20648;DHT22;10483;44.646;10.924;2022-07-25T11:08:58;44.40;60.00
20648;DHT22;10483;44.646;10.924;2022-07-25T11:11:32;43.20;61.60
20648;DHT22;10483;44.646;10.924;2022-07-25T11:14:00;42.40;64.90
20648;DHT22;10483;44.646;10.924;2022-07-25T11:16:26;41.10;68.20
20648;DHT22;10483;44.646;10.924;2022-07-25T11:18:53;40.10;66.70
20648;DHT22;10483;44.646;10.924;2022-07-25T11:21:19;39.20;68.90
20648;DHT22;10483;44.646;10.924;2022-07-25T11:23:50;38.80;71.90
20648;DHT22;10483;44.646;10.924;2022-07-25T11:26:18;38.40;70.20
20648;DHT22;10483;44.646;10.924;2022-07-25T11:28:47;38.00;72.30
20648;DHT22;10483;44.646;10.924;2022-07-25T11:31:15;37.70;75.00
20648;DHT22;10483;44.646;10.924;2022-07-25T11:33:46;37.30;78.90
20648;DHT22;10483;44.646;10.924;2022-07-25T11:36:13;37.00;74.20
20648;DHT22;10483;44.646;10.924;2022-07-25T11:38:40;36.70;78.50
20648;DHT22;10483;44.646;10.924;2022-07-25T11:41:07;36.50;79.60
20648;DHT22;10483;44.646;10.924;2022-07-25T11:43:34;36.40;79.40
20648;DHT22;10483;44.646;10.924;2022-07-25T11:46:04;36.30;77.80
20648;DHT22;10483;44.646;10.924;2022-07-25T11:48:34;36.10;81.50
20648;DHT22;10483;44.646;10.924;2022-07-25T11:51:09;36.00;82.00
20648;DHT22;10483;44.646;10.924;2022-07-25T11:53:40;35.70;83.90
20648;DHT22;10483;44.646;10.924;2022-07-25T11:56:14;35.70;83.70
20648;DHT22;10483;44.646;10.924;2022-07-25T11:58:42;35.70;78.50
20648;DHT22;10483;44.646;10.924;2022-07-25T12:01:12;35.80;77.80
20648;DHT22;10483;44.646;10.924;2022-07-25T12:03:39;35.80;80.40
20648;DHT22;10483;44.646;10.924;2022-07-25T12:06:10;35.60;84.50
20648;DHT22;10483;44.646;10.924;2022-07-25T12:08:40;35.60;83.30
20648;DHT22;10483;44.646;10.924;2022-07-25T12:11:15;35.50;85.30
20648;DHT22;10483;44.646;10.924;2022-07-25T12:13:43;35.50;85.60
20648;DHT22;10483;44.646;10.924;2022-07-25T12:16:09;35.50;81.80
20648;DHT22;10483;44.646;10.924;2022-07-25T12:18:37;35.50;80.80
20648;DHT22;10483;44.646;10.924;2022-07-25T12:21:03;35.60;84.20
20648;DHT22;10483;44.646;10.924;2022-07-25T12:23:30;35.50;82.50
20648;DHT22;10483;44.646;10.924;2022-07-25T12:25:57;35.50;81.50
20648;DHT22;10483;44.646;10.924;2022-07-25T12:28:23;35.50;81.80
20648;DHT22;10483;44.646;10.924;2022-07-25T12:30:50;35.50;80.90
20648;DHT22;10483;44.646;10.924;2022-07-25T12:33:17;35.60;80.60
20648;DHT22;10483;44.646;10.924;2022-07-25T12:35:44;35.60;82.40
20648;DHT22;10483;44.646;10.924;2022-07-25T12:38:10;35.60;82.10
20648;DHT22;10483;44.646;10.924;2022-07-25T12:40:37;35.60;80.70
20648;DHT22;10483;44.646;10.924;2022-07-25T12:43:04;35.50;84.20
20648;DHT22;10483;44.646;10.924;2022-07-25T12:45:31;35.40;85.50
20648;DHT22;10483;44.646;10.924;2022-07-25T12:47:57;35.30;85.10
20648;DHT22;10483;44.646;10.924;2022-07-25T12:50:24;35.20;86.30
20648;DHT22;10483;44.646;10.924;2022-07-25T12:52:51;35.30;81.70
20648;DHT22;10483;44.646;10.924;2022-07-25T12:55:19;35.30;81.60
20648;DHT22;10483;44.646;10.924;2022-07-25T12:57:46;35.30;81.10
20648;DHT22;10483;44.646;10.924;2022-07-25T13:00:15;35.40;82.10
20648;DHT22;10483;44.646;10.924;2022-07-25T13:02:41;35.30;80.90
20648;DHT22;10483;44.646;10.924;2022-07-25T13:05:09;35.40;80.40
20648;DHT22;10483;44.646;10.924;2022-07-25T13:07:36;35.30;82.90
20648;DHT22;10483;44.646;10.924;2022-07-25T13:10:03;35.30;84.20
20648;DHT22;10483;44.646;10.924;2022-07-25T13:12:30;35.30;82.60
20648;DHT22;10483;44.646;10.924;2022-07-25T13:14:57;35.30;84.60
20648;DHT22;10483;44.646;10.924;2022-07-25T13:17:24;35.20;84.70
20648;DHT22;10483;44.646;10.924;2022-07-25T13:19:51;35.10;83.80
20648;DHT22;10483;44.646;10.924;2022-07-25T13:22:18;35.10;83.60
20648;DHT22;10483;44.646;10.924;2022-07-25T13:24:44;35.10;83.30
20648;DHT22;10483;44.646;10.924;2022-07-25T13:27:11;35.00;84.80
20648;DHT22;10483;44.646;10.924;2022-07-25T13:29:38;35.00;83.70
20648;DHT22;10483;44.646;10.924;2022-07-25T13:32:05;34.90;84.20
20648;DHT22;10483;44.646;10.924;2022-07-25T13:34:31;34.90;81.00
20648;DHT22;10483;44.646;10.924;2022-07-25T13:36:58;34.90;80.60
20648;DHT22;10483;44.646;10.924;2022-07-25T13:39:25;34.90;81.30
20648;DHT22;10483;44.646;10.924;2022-07-25T13:41:52;34.90;80.70
20648;DHT22;10483;44.646;10.924;2022-07-25T13:44:18;34.90;80.70
20648;DHT22;10483;44.646;10.924;2022-07-25T13:46:45;34.90;84.00
20648;DHT22;10483;44.646;10.924;2022-07-25T13:49:15;34.80;84.20
20648;DHT22;10483;44.646;10.924;2022-07-25T13:51:42;34.70;87.10
20648;DHT22;10483;44.646;10.924;2022-07-25T13:54:11;34.70;83.60
20648;DHT22;10483;44.646;10.924;2022-07-25T13:56:38;34.70;84.40
20648;DHT22;10483;44.646;10.924;2022-07-25T13:59:06;34.80;82.30
20648;DHT22;10483;44.646;10.924;2022-07-25T14:01:33;34.90;82.40
20648;DHT22;10483;44.646;10.924;2022-07-25T14:04:00;34.90;83.40
20648;DHT22;10483;44.646;10.924;2022-07-25T14:06:26;34.90;81.60
20648;DHT22;10483;44.646;10.924;2022-07-25T14:08:53;34.90;80.90
20648;DHT22;10483;44.646;10.924;2022-07-25T14:11:19;34.90;80.70
20648;DHT22;10483;44.646;10.924;2022-07-25T14:13:46;34.90;81.60
20648;DHT22;10483;44.646;10.924;2022-07-25T14:16:13;34.90;80.30
20648;DHT22;10483;44.646;10.924;2022-07-25T14:18:42;35.00;80.70
20648;DHT22;10483;44.646;10.924;2022-07-25T14:21:08;35.00;82.80
20648;DHT22;10483;44.646;10.924;2022-07-25T14:23:35;34.90;84.30
20648;DHT22;10483;44.646;10.924;2022-07-25T14:26:02;34.90;80.50
20648;DHT22;10483;44.646;10.924;2022-07-25T14:28:28;34.90;80.30
20648;DHT22;10483;44.646;10.924;2022-07-25T14:30:55;34.90;80.20
20648;DHT22;10483;44.646;10.924;2022-07-25T14:33:22;34.90;80.50
20648;DHT22;10483;44.646;10.924;2022-07-25T14:35:48;34.90;80.90
20648;DHT22;10483;44.646;10.924;2022-07-25T14:38:15;34.90;80.70
20648;DHT22;10483;44.646;10.924;2022-07-25T14:40:42;34.90;84.40
20648;DHT22;10483;44.646;10.924;2022-07-25T14:43:09;34.80;84.20
20648;DHT22;10483;44.646;10.924;2022-07-25T14:45:35;34.70;85.70
20648;DHT22;10483;44.646;10.924;2022-07-25T14:48:04;34.70;85.30
20648;DHT22;10483;44.646;10.924;2022-07-25T14:50:31;34.70;84.60
20648;DHT22;10483;44.646;10.924;2022-07-25T14:52:58;34.60;84.30
20648;DHT22;10483;44.646;10.924;2022-07-25T14:55:25;34.60;84.20
20648;DHT22;10483;44.646;10.924;2022-07-25T14:57:51;34.60;82.10
20648;DHT22;10483;44.646;10.924;2022-07-25T15:00:18;34.60;83.00
20648;DHT22;10483;44.646;10.924;2022-07-25T15:02:45;34.50;83.30
20648;DHT22;10483;44.646;10.924;2022-07-25T15:05:12;34.50;83.30
20648;DHT22;10483;44.646;10.924;2022-07-25T15:07:38;34.50;83.20
20648;DHT22;10483;44.646;10.924;2022-07-25T15:10:05;34.60;83.40
20648;DHT22;10483;44.646;10.924;2022-07-25T15:12:33;34.50;83.50
20648;DHT22;10483;44.646;10.924;2022-07-25T15:15:00;34.50;83.70
20648;DHT22;10483;44.646;10.924;2022-07-25T15:17:26;34.50;84.90
20648;DHT22;10483;44.646;10.924;2022-07-25T15:19:53;34.50;83.40